createdAt,value
2019-04-23T00:00:07.304Z,35.66
2019-04-23T00:02:51.210Z,35.61
2019-04-23T00:05:33.593Z,35.86
2019-04-23T00:08:09.511Z,36.19
2019-04-23T00:10:28.655Z,36.05
2019-04-23T00:13:10.912Z,36.04
2019-04-23T00:15:54.597Z,36.12
2019-04-23T00:18:22.266Z,36.09
2019-04-23T00:20:47.908Z,36.33
2019-04-23T00:23:21.946Z,36.50
2019-04-23T00:26:19.869Z,36.50
2019-04-23T00:28:45.674Z,36.07
2019-04-23T00:31:14.579Z,35.95
2019-04-23T00:33:57.442Z,35.83
2019-04-23T00:36:19.418Z,35.74
2019-04-23T00:38:44.720Z,35.76
2019-04-23T00:41:16.216Z,36.14
2019-04-23T00:46:22.329Z,35.87
2019-04-23T00:48:59.157Z,36.00
2019-04-23T00:51:27.403Z,36.37
2019-04-23T00:54:04.265Z,36.39
2019-04-23T00:59:00.420Z,36.64
2019-04-23T01:01:38.871Z,36.58
2019-04-23T01:04:10.210Z,36.77
2019-04-23T01:06:32.151Z,36.89
2019-04-23T01:09:08.498Z,36.49
2019-04-23T01:11:33.287Z,36.57
2019-04-23T01:14:06.685Z,36.53
2019-04-23T01:16:37.531Z,36.36
2019-04-23T01:21:45.337Z,36.45
2019-04-23T01:24:43.808Z,36.85
2019-04-23T01:27:49.201Z,36.92
2019-04-23T01:32:43.733Z,37.52
2019-04-23T01:35:16.002Z,37.60
2019-04-23T01:37:58.060Z,37.70
2019-04-23T01:40:19.091Z,37.77
2019-04-23T01:47:54.779Z,37.73
2019-04-23T01:50:47.094Z,37.48
2019-04-23T01:53:02.600Z,37.80
2019-04-23T01:58:24.105Z,38.38
2019-04-23T02:00:37.418Z,38.35
2019-04-23T02:03:09.409Z,38.21
2019-04-23T02:05:55.577Z,38.63
2019-04-23T02:08:09.544Z,38.79
2019-04-23T02:13:16.585Z,39.17
2019-04-23T02:18:18.135Z,39.51
2019-04-23T02:20:57.225Z,39.44
2019-04-23T02:23:57.280Z,39.92
2019-04-23T02:26:22.063Z,39.33
2019-04-23T02:28:51.094Z,39.13
2019-04-23T02:31:48.952Z,39.43
2019-04-23T02:34:00.514Z,39.26
2019-04-23T02:36:32.283Z,39.50
2019-04-23T02:38:56.312Z,39.81
2019-04-23T02:41:41.559Z,40.04
2019-04-23T02:46:44.001Z,40.06
2019-04-23T02:51:42.399Z,40.72
2019-04-23T02:56:51.097Z,40.70
2019-04-23T03:02:26.587Z,40.45
2019-04-23T03:04:28.779Z,40.71
2019-04-23T03:07:01.340Z,40.88
2019-04-23T03:11:57.049Z,40.93
2019-04-23T03:19:47.929Z,40.99
2019-04-23T03:22:15.610Z,41.18
2019-04-23T03:25:16.762Z,41.36
2019-04-23T03:27:55.940Z,41.67
2019-04-23T03:30:30.123Z,41.65
2019-04-23T03:36:17.067Z,42.00
2019-04-23T03:37:58.121Z,42.02
2019-04-23T03:40:39.182Z,42.12
2019-04-23T03:45:36.961Z,42.63
2019-04-23T03:50:39.655Z,42.90
2019-04-23T03:53:03.653Z,42.97
2019-04-23T03:55:37.493Z,43.19
2019-04-23T03:58:12.432Z,43.16
2019-04-23T04:03:27.733Z,43.40
2019-04-23T04:05:49.726Z,43.64
2019-04-23T04:10:52.358Z,44.00
2019-04-23T04:21:01.156Z,44.16
2019-04-23T04:23:40.450Z,44.18
2019-04-23T04:28:38.883Z,44.58
2019-04-23T04:31:05.543Z,44.66
2019-04-23T04:33:48.920Z,44.57
2019-04-23T04:36:18.174Z,44.49
2019-04-23T04:38:47.388Z,44.67
2019-04-23T04:41:15.878Z,44.84
2019-04-23T04:46:30.567Z,45.11
2019-04-23T04:48:50.764Z,44.76
2019-04-23T04:51:27.097Z,44.91
2019-04-23T04:54:11.712Z,45.15
2019-04-23T04:56:35.987Z,44.98
2019-04-23T05:01:23.138Z,45.25
2019-04-23T05:03:43.735Z,45.61
2019-04-23T05:06:37.503Z,45.74
2019-04-23T05:09:08.924Z,45.77
2019-04-23T05:11:51.727Z,45.71
2019-04-23T05:14:12.779Z,45.74
2019-04-23T05:16:46.775Z,45.70
2019-04-23T05:19:29.679Z,45.85
2019-04-23T05:21:53.995Z,45.79
2019-04-23T05:24:31.778Z,46.06
2019-04-23T05:26:55.079Z,45.63
2019-04-23T05:29:31.355Z,45.67
2019-04-23T05:31:53.432Z,46.19
2019-04-23T05:34:38.641Z,45.70
2019-04-23T05:37:00.105Z,45.92
2019-04-23T05:39:35.434Z,46.46
2019-04-23T05:42:05.731Z,46.38
2019-04-23T05:44:38.256Z,46.92
2019-04-23T05:47:18.979Z,47.08
2019-04-23T05:49:46.008Z,46.73
2019-04-23T05:52:39.684Z,47.84
2019-04-23T05:54:49.944Z,47.76
2019-04-23T05:57:13.774Z,48.03
2019-04-23T05:59:46.827Z,48.46
2019-04-23T06:02:20.383Z,48.45
2019-04-23T06:04:59.142Z,49.06
2019-04-23T06:09:59.339Z,49.13
2019-04-23T06:12:33.371Z,49.31
2019-04-23T06:15:05.047Z,49.45
2019-04-23T06:17:30.491Z,49.28
2019-04-23T06:20:10.977Z,49.48
2019-04-23T06:22:42.365Z,49.61
2019-04-23T06:25:25.287Z,48.57
2019-04-23T06:27:49.479Z,47.67
2019-04-23T06:30:23.485Z,48.22
2019-04-23T06:32:42.803Z,48.13
2019-04-23T06:35:13.873Z,49.00
2019-04-23T06:38:14.124Z,49.19
2019-04-23T06:40:23.561Z,48.95
2019-04-23T06:43:04.695Z,48.99
2019-04-23T06:45:32.264Z,48.53
2019-04-23T06:48:12.015Z,48.02
2019-04-23T06:50:43.262Z,48.00
2019-04-23T06:53:09.088Z,48.52
2019-04-23T06:55:47.505Z,49.03
2019-04-23T06:58:18.739Z,48.37
2019-04-23T07:00:48.841Z,48.19
2019-04-23T07:03:23.317Z,47.70
2019-04-23T07:11:23.870Z,46.77
2019-04-23T07:16:16.061Z,47.44
2019-04-23T07:18:52.233Z,45.92
2019-04-23T07:21:21.972Z,46.86
2019-04-23T07:24:00.708Z,46.74
2019-04-23T07:29:00.016Z,45.76
2019-04-23T07:31:29.618Z,45.87
2019-04-23T07:34:01.046Z,46.09
2019-04-23T07:39:06.096Z,45.56
2019-04-23T07:45:16.044Z,44.99
2019-04-23T07:48:10.801Z,44.78
2019-04-23T07:58:20.821Z,45.86
2019-04-23T08:00:45.496Z,45.11
2019-04-23T08:03:22.630Z,45.58
2019-04-23T08:05:45.718Z,45.79
2019-04-23T08:08:16.984Z,45.31
2019-04-23T08:11:23.555Z,45.20
2019-04-23T08:16:18.269Z,45.79
2019-04-23T08:18:45.175Z,46.22
2019-04-23T08:21:22.730Z,45.74
2019-04-23T08:24:05.847Z,45.70
2019-04-23T08:26:58.327Z,45.05
2019-04-23T08:32:00.249Z,44.72
2019-04-23T08:34:29.683Z,44.98
2019-04-23T08:36:55.423Z,45.21
2019-04-23T08:39:34.002Z,44.71
2019-04-23T08:42:23.363Z,45.04
2019-04-23T08:45:05.410Z,45.41
2019-04-23T08:47:29.814Z,45.39
2019-04-23T08:50:01.292Z,44.44
2019-04-23T08:52:28.511Z,44.81
2019-04-23T08:55:00.892Z,45.15
2019-04-23T08:57:32.155Z,44.79
2019-04-23T09:00:02.880Z,44.46
2019-04-23T09:07:53.922Z,44.31
2019-04-23T09:15:23.760Z,44.53
2019-04-23T09:22:51.090Z,45.13
2019-04-23T09:28:16.063Z,44.37
2019-04-23T09:30:28.694Z,44.66
2019-04-23T09:33:28.315Z,45.05
2019-04-23T09:35:53.529Z,44.89
2019-04-23T09:38:55.819Z,45.14
2019-04-23T09:41:27.345Z,44.37
2019-04-23T09:44:29.489Z,44.70
2019-04-23T09:46:53.107Z,45.10
2019-04-23T09:54:23.672Z,44.17
2019-04-23T09:56:52.713Z,44.47
2019-04-23T09:59:34.237Z,45.29
2019-04-23T10:01:49.890Z,47.03
2019-04-23T10:04:19.568Z,47.76
2019-04-23T10:06:45.160Z,49.08
2019-04-23T10:09:12.647Z,48.91
2019-04-23T10:11:43.085Z,48.90
2019-04-23T10:14:14.787Z,48.59
2019-04-23T10:16:45.180Z,47.39
2019-04-23T10:19:15.636Z,47.57
2019-04-23T10:21:47.148Z,47.51
2019-04-23T10:24:17.143Z,48.15
2019-04-23T10:26:48.149Z,47.34
2019-04-23T10:29:29.816Z,48.87
2019-04-23T10:32:01.912Z,47.06
2019-04-23T10:34:47.852Z,44.75
2019-04-23T10:37:05.314Z,46.74
2019-04-23T10:39:39.078Z,46.34
2019-04-23T10:42:09.855Z,44.96
2019-04-23T10:44:50.434Z,46.07
2019-04-23T10:48:11.631Z,45.51
2019-04-23T10:50:49.549Z,45.55
2019-04-23T10:53:26.111Z,43.39
2019-04-23T10:58:25.126Z,43.46
2019-04-23T11:01:08.526Z,44.21
2019-04-23T11:08:31.217Z,42.88
2019-04-23T11:11:10.449Z,42.76
2019-04-23T11:13:45.261Z,43.46
2019-04-23T11:16:41.951Z,42.90
2019-04-23T11:21:24.088Z,42.18
2019-04-23T11:26:24.436Z,42.91
2019-04-23T11:28:42.915Z,42.18
2019-04-23T11:31:35.206Z,41.81
2019-04-23T11:33:59.525Z,43.01
2019-04-23T11:36:47.919Z,43.01
2019-04-23T11:38:58.442Z,41.90
2019-04-23T11:41:53.051Z,41.59
2019-04-23T11:44:14.269Z,41.87
2019-04-23T11:49:29.406Z,40.95
2019-04-23T11:51:54.720Z,41.65
2019-04-23T11:54:15.087Z,40.82
2019-04-23T11:57:14.603Z,40.80
2019-04-23T11:59:25.751Z,40.25
2019-04-23T12:02:12.176Z,41.90
2019-04-23T12:08:11.616Z,40.01
2019-04-23T12:10:47.765Z,40.37
2019-04-23T12:13:20.508Z,40.20
2019-04-23T12:15:46.361Z,39.01
2019-04-23T12:18:26.609Z,39.17
2019-04-23T12:21:00.441Z,38.07
2019-04-23T12:23:42.472Z,38.98
2019-04-23T12:26:13.534Z,38.30
2019-04-23T12:28:44.180Z,38.26
2019-04-23T12:31:11.867Z,38.62
2019-04-23T12:33:50.123Z,38.38
2019-04-23T12:36:43.651Z,37.83
2019-04-23T12:41:58.238Z,39.10
2019-04-23T12:44:14.909Z,37.71
2019-04-23T12:46:54.136Z,37.69
2019-04-23T12:49:57.717Z,37.75
2019-04-23T12:51:56.067Z,35.06
2019-04-23T12:54:42.978Z,35.88
2019-04-23T12:57:04.782Z,36.28
2019-04-23T12:59:30.870Z,35.98
2019-04-23T13:02:06.770Z,36.18
2019-04-23T13:04:45.602Z,36.25
2019-04-23T13:09:52.489Z,36.71
2019-04-23T13:12:32.790Z,36.57
2019-04-23T13:17:29.668Z,36.79
2019-04-23T13:20:14.627Z,36.14
2019-04-23T13:22:37.340Z,36.68
2019-04-23T13:25:29.689Z,36.20
2019-04-23T13:28:02.920Z,35.76
2019-04-23T13:30:33.482Z,35.67
2019-04-23T13:33:02.689Z,35.15
2019-04-23T13:38:08.616Z,35.07
2019-04-23T13:43:14.909Z,34.95
2019-04-23T13:45:59.891Z,35.26
2019-04-23T13:50:49.981Z,36.08
2019-04-23T13:55:42.691Z,33.94
2019-04-23T13:58:22.278Z,34.98
2019-04-23T14:01:00.690Z,32.92
2019-04-23T14:03:33.261Z,34.51
2019-04-23T14:08:47.012Z,35.66
2019-04-23T14:13:55.057Z,35.81
2019-04-23T14:16:22.854Z,35.61
2019-04-23T14:21:28.544Z,35.71
2019-04-23T14:24:02.989Z,36.68
2019-04-23T14:31:37.171Z,37.45
2019-04-23T14:36:30.591Z,37.29
2019-04-23T14:39:15.772Z,37.62
2019-04-23T14:44:11.391Z,36.84
2019-04-23T14:49:11.242Z,37.19
2019-04-23T14:54:37.999Z,38.16
2019-04-23T14:56:59.393Z,38.00
2019-04-23T14:59:14.824Z,38.33
2019-04-23T15:01:54.998Z,37.90
2019-04-23T15:04:32.108Z,38.07
2019-04-23T15:07:08.944Z,37.63
2019-04-23T15:17:12.798Z,38.48
2019-04-23T15:19:47.939Z,38.02
2019-04-23T15:22:21.733Z,37.52
2019-04-23T15:25:06.996Z,37.70
2019-04-23T15:28:03.098Z,37.83
2019-04-23T15:29:45.919Z,37.76
2019-04-23T15:32:35.094Z,37.88
2019-04-23T15:35:10.475Z,38.08
2019-04-23T15:42:34.830Z,38.29
2019-04-23T15:45:08.010Z,38.44
2019-04-23T15:47:39.187Z,38.08
2019-04-23T15:50:14.609Z,38.39
2019-04-23T15:52:54.333Z,38.71
2019-04-23T15:55:12.593Z,39.08
2019-04-23T16:00:22.222Z,38.87
2019-04-23T16:02:23.841Z,37.94
2019-04-23T16:04:56.023Z,37.74
2019-04-23T16:07:47.175Z,37.23
2019-04-23T16:10:28.320Z,37.13
2019-04-23T16:13:02.724Z,37.29
2019-04-23T16:15:30.927Z,36.57
2019-04-23T16:18:29.998Z,36.11
2019-04-23T16:23:26.444Z,36.27
2019-04-23T16:26:03.242Z,36.75
2019-04-23T16:28:42.241Z,36.13
2019-04-23T16:31:15.225Z,37.23
2019-04-23T16:33:47.313Z,37.17
2019-04-23T16:36:21.866Z,36.93
2019-04-23T16:38:55.357Z,36.80
2019-04-23T16:54:06.340Z,37.97
2019-04-23T16:57:01.236Z,38.10
2019-04-23T16:59:08.372Z,38.18
2019-04-23T17:01:31.082Z,37.30
2019-04-23T17:04:15.803Z,37.23
2019-04-23T17:06:36.186Z,37.64
2019-04-23T17:09:09.983Z,38.34
2019-04-23T17:11:41.638Z,38.47
2019-04-23T17:14:16.269Z,38.27
2019-04-23T17:21:53.363Z,39.01
2019-04-23T17:24:24.411Z,39.59
2019-04-23T17:26:53.994Z,39.58
2019-04-23T17:29:28.582Z,39.41
2019-04-23T17:32:05.795Z,40.27
2019-04-23T17:37:21.755Z,39.97
2019-04-23T17:40:04.132Z,40.91
2019-04-23T17:42:45.465Z,40.10
2019-04-23T17:48:11.773Z,40.82
2019-04-23T17:50:56.721Z,40.98
2019-04-23T17:53:26.971Z,40.50
2019-04-23T17:56:12.330Z,40.50
2019-04-23T17:58:28.563Z,41.00
2019-04-23T18:01:17.704Z,41.00
2019-04-23T18:06:21.305Z,42.68
2019-04-23T18:13:50.571Z,42.59
2019-04-23T18:16:33.423Z,42.82
2019-04-23T18:19:00.877Z,42.45
2019-04-23T18:21:54.438Z,42.35
2019-04-23T18:27:17.323Z,43.46
2019-04-23T18:30:01.076Z,43.38
2019-04-23T18:32:44.714Z,42.85
2019-04-23T18:37:36.171Z,43.16
2019-04-23T18:40:03.664Z,44.05
2019-04-23T18:42:45.044Z,44.05
2019-04-23T18:45:22.619Z,44.36
2019-04-23T18:48:04.485Z,44.36
2019-04-23T18:50:30.719Z,44.39
2019-04-23T18:52:58.431Z,44.36
2019-04-23T18:55:34.943Z,44.82
2019-04-23T18:57:56.890Z,44.83
2019-04-23T19:00:39.432Z,44.82
2019-04-23T19:03:29.335Z,45.27
2019-04-23T19:06:23.863Z,45.27
2019-04-23T19:09:04.399Z,45.21
2019-04-23T19:11:47.545Z,45.14
2019-04-23T19:14:11.119Z,45.54
2019-04-23T19:16:55.261Z,45.65
2019-04-23T19:19:11.036Z,45.58
2019-04-23T19:22:10.688Z,45.89
2019-04-23T19:24:18.432Z,46.61
2019-04-23T19:27:13.667Z,46.00
2019-04-23T19:29:21.339Z,46.08
2019-04-23T19:31:56.926Z,45.90
2019-04-23T19:39:47.751Z,45.60
2019-04-23T19:42:09.908Z,45.60
2019-04-23T19:44:45.587Z,45.60
2019-04-23T19:47:23.340Z,45.56
2019-04-23T19:49:41.975Z,45.56
2019-04-23T19:52:10.775Z,45.32
2019-04-23T19:59:55.344Z,45.40
2019-04-23T20:04:57.484Z,45.89
2019-04-23T20:07:43.158Z,45.38
2019-04-23T20:10:19.999Z,45.38
2019-04-23T20:12:32.087Z,45.58
2019-04-23T20:15:15.944Z,46.28
2019-04-23T20:20:25.370Z,46.39
2019-04-23T20:22:47.328Z,47.06
2019-04-23T20:25:45.924Z,46.99
2019-04-23T20:27:52.257Z,46.87
2019-04-23T20:31:03.663Z,47.18
2019-04-23T20:33:55.540Z,47.18
2019-04-23T20:38:48.342Z,46.87
2019-04-23T20:41:14.570Z,47.29
2019-04-23T20:43:43.730Z,47.44
2019-04-23T20:46:08.345Z,47.38
2019-04-23T20:51:09.272Z,47.57
2019-04-23T20:53:46.931Z,47.16
2019-04-23T20:56:17.926Z,47.14
2019-04-23T20:58:54.684Z,47.34
2019-04-23T21:01:30.656Z,47.51
2019-04-23T21:04:00.029Z,47.69
2019-04-23T21:06:39.406Z,47.62
2019-04-23T21:11:40.665Z,48.02
2019-04-23T21:14:15.226Z,48.12
2019-04-23T21:16:41.111Z,48.03
2019-04-23T21:19:13.778Z,48.02
2019-04-23T21:22:09.823Z,48.05
2019-04-23T21:24:42.961Z,48.29
2019-04-23T21:27:21.218Z,48.17
2019-04-23T21:29:53.683Z,48.49
2019-04-23T21:32:24.908Z,48.64
2019-04-23T21:37:49.773Z,48.78
2019-04-23T21:43:20.641Z,48.77
2019-04-23T21:46:14.582Z,48.73
2019-04-23T21:48:55.601Z,48.83
2019-04-23T21:51:22.831Z,48.92
2019-04-23T21:53:46.370Z,48.80
2019-04-23T21:56:15.472Z,48.95
2019-04-23T22:04:05.263Z,49.16
2019-04-23T22:14:10.230Z,49.39
2019-04-23T22:16:40.950Z,49.39
2019-04-23T22:19:17.011Z,49.49
2019-04-23T22:21:45.329Z,49.49
2019-04-23T22:24:21.250Z,49.72
2019-04-23T22:26:49.399Z,49.82
2019-04-23T22:31:47.462Z,49.92
2019-04-23T22:34:22.234Z,50.17
2019-04-23T22:37:11.149Z,50.19
2019-04-23T22:39:23.659Z,50.56
2019-04-23T22:42:04.326Z,50.24
2019-04-23T22:44:31.002Z,50.50
2019-04-23T22:47:00.861Z,50.62
2019-04-23T22:49:45.365Z,50.75
2019-04-23T22:52:18.744Z,50.42
2019-04-23T22:54:44.832Z,50.42
2019-04-23T22:57:07.752Z,50.43
2019-04-23T23:00:00.749Z,50.91
2019-04-23T23:02:44.371Z,50.82
2019-04-23T23:05:15.416Z,51.00
2019-04-23T23:10:12.921Z,51.46
2019-04-23T23:15:23.666Z,51.55
2019-04-23T23:18:03.141Z,51.39
2019-04-23T23:20:36.633Z,51.55
2019-04-23T23:25:25.655Z,51.35
2019-04-23T23:28:05.894Z,51.52
2019-04-23T23:30:38.464Z,51.78
2019-04-23T23:33:12.911Z,52.13
2019-04-23T23:35:37.116Z,52.35
2019-04-23T23:38:18.377Z,52.32
2019-04-23T23:41:03.753Z,52.48
2019-04-23T23:43:23.360Z,52.47
2019-04-23T23:48:13.049Z,52.57
2019-04-23T23:50:56.345Z,52.73
2019-04-23T23:53:29.802Z,52.45
2019-04-23T23:58:32.097Z,52.35
